Terminal Aerodrome Forecast
Issued by NWS

Home | Current Version | Previous Version | Graphics & Text | Print | Product List | Glossary On
Versions: 1 2 3 4 5 6 7 8 9 10 11 12 13 14 15 16 17
000
FTUS43 KBIS 201134
TAFMOT
TAF
KMOT 201134Z 2012/2112 15006KT P6SM SCT120 BKN200
     FM201600 17009KT P6SM FEW250
     FM210000 31006KT P6SM SCT060=

USA.gov is the U.S. government's official web portal to all federal, state and local government web resources and services.